Time,TemperatureF,DewpointF,PressureIn,WindDirection,WindDirectionDegrees,WindSpeedMPH,WindSpeedGustMPH,Humidity,HourlyPrecipIn,Conditions,Clouds,dailyrainin,SoftwareType,DateUTC
2013-06-05 00:10:00,64.5,61.8,29.91,SE,136,0.0,4.0,91,0.00,,---,0.00,VWS V14.01,2013-06-05 05:10:00,
2013-06-05 00:25:00,64.5,62.1,29.90,SE,126,0.0,5.0,92,0.00,,---,0.00,VWS V14.01,2013-06-05 05:25:00,
2013-06-05 00:40:00,64.4,62.3,29.90,SE,126,0.0,4.0,93,0.00,,---,0.00,VWS V14.01,2013-06-05 05:40:00,
2013-06-05 00:55:00,64.3,62.2,29.90,East,96,0.0,5.0,93,0.00,,---,0.00,VWS V14.01,2013-06-05 05:55:00,
2013-06-05 01:10:00,64.1,62.3,29.90,ESE,113,1.0,6.0,94,0.00,,---,0.00,VWS V14.01,2013-06-05 06:10:00,
2013-06-05 01:25:00,64.0,62.2,29.89,ESE,115,2.0,5.0,94,0.00,,---,0.00,VWS V14.01,2013-06-05 06:25:00,
2013-06-05 01:40:00,64.0,62.2,29.89,SE,141,1.0,8.0,94,0.00,,---,0.00,VWS V14.01,2013-06-05 06:40:00,
2013-06-05 01:55:00,64.1,62.3,29.89,SE,132,0.0,7.0,94,0.00,,---,0.00,VWS V14.01,2013-06-05 06:55:00,
2013-06-05 02:10:00,64.4,62.3,29.90,ESE,121,6.0,9.0,93,0.00,,---,0.00,VWS V14.01,2013-06-05 07:10:00,
2013-06-05 02:25:00,64.6,62.2,29.91,ESE,121,4.0,9.0,92,0.00,,---,0.00,VWS V14.01,2013-06-05 07:25:00,
2013-06-05 02:40:00,64.5,61.8,29.90,SSE,148,6.0,9.0,91,0.00,,---,0.00,VWS V14.01,2013-06-05 07:40:00,
2013-06-05 02:55:00,64.1,61.7,29.92,SSE,150,0.0,6.0,92,0.00,,---,0.00,VWS V14.01,2013-06-05 07:55:00,
2013-06-05 03:10:00,64.0,61.6,29.91,SSE,150,0.0,4.0,92,0.00,,---,0.00,VWS V14.01,2013-06-05 08:10:00,
2013-06-05 03:25:00,63.8,61.4,29.90,ESE,104,2.0,5.0,92,0.00,,---,0.00,VWS V14.01,2013-06-05 08:25:00,
2013-06-05 03:40:00,63.6,61.2,29.90,East,89,0.0,4.0,92,0.00,,---,0.00,VWS V14.01,2013-06-05 08:40:00,
2013-06-05 03:55:00,63.4,61.0,29.90,ESE,111,4.0,5.0,92,0.00,,---,0.00,VWS V14.01,2013-06-05 08:55:00,
2013-06-05 04:10:00,63.3,60.9,29.90,ESE,123,0.0,6.0,92,0.00,,---,0.00,VWS V14.01,2013-06-05 09:10:00,
2013-06-05 04:25:00,63.2,60.8,29.90,ESE,119,0.0,6.0,92,0.00,,---,0.00,VWS V14.01,2013-06-05 09:25:00,
2013-06-05 04:40:00,63.0,60.6,29.90,ESE,117,1.0,8.0,92,0.00,,---,0.00,VWS V14.01,2013-06-05 09:40:00,
2013-06-05 04:55:00,62.7,60.3,29.90,ESE,117,0.0,6.0,92,0.00,,---,0.00,VWS V14.01,2013-06-05 09:55:00,
2013-06-05 05:10:00,62.5,60.2,29.89,ESE,109,0.0,5.0,92,0.00,,---,0.00,VWS V14.01,2013-06-05 10:10:00,
2013-06-05 05:25:00,62.3,60.0,29.89,ESE,118,1.0,7.0,92,0.00,,---,0.00,VWS V14.01,2013-06-05 10:25:00,
2013-06-05 05:40:00,62.2,59.8,29.88,East,97,0.0,7.0,92,0.00,,---,0.00,VWS V14.01,2013-06-05 10:40:00,
2013-06-05 05:55:00,62.2,59.8,29.88,East,96,1.0,5.0,92,0.00,,---,0.00,VWS V14.01,2013-06-05 10:55:00,
2013-06-05 06:10:00,62.1,59.8,29.87,ENE,71,3.0,5.0,92,0.00,,---,0.00,VWS V14.01,2013-06-05 11:10:00,
2013-06-05 06:25:00,62.0,59.7,29.86,East,80,1.0,4.0,92,0.00,,---,0.00,VWS V14.01,2013-06-05 11:25:00,
2013-06-05 06:40:00,61.9,59.5,29.86,ESE,115,4.0,6.0,92,0.00,,---,0.00,VWS V14.01,2013-06-05 11:40:00,
2013-06-05 06:55:00,62.0,59.7,29.86,SE,133,0.0,9.0,92,0.00,,---,0.00,VWS V14.01,2013-06-05 11:55:00,
2013-06-05 07:10:00,62.0,59.7,29.87,ESE,121,2.0,8.0,92,0.00,,---,0.00,VWS V14.01,2013-06-05 12:10:00,
2013-06-05 07:25:00,62.2,59.8,29.87,SE,132,0.0,7.0,92,0.00,,---,0.00,VWS V14.01,2013-06-05 12:25:00,
2013-06-05 07:40:00,62.4,60.0,29.87,SE,132,0.0,4.0,92,0.00,,---,0.00,VWS V14.01,2013-06-05 12:40:00,
2013-06-05 07:55:00,62.6,60.2,29.88,SE,132,0.0,4.0,92,0.00,,---,0.00,VWS V14.01,2013-06-05 12:55:00,
2013-06-05 08:10:00,63.0,60.3,29.88,SE,132,0.0,0.0,91,0.00,,---,0.00,VWS V14.01,2013-06-05 13:10:00,
2013-06-05 08:25:00,63.2,60.5,29.88,SSE,155,0.0,4.0,91,0.00,,---,0.00,VWS V14.01,2013-06-05 13:25:00,
2013-06-05 08:40:00,63.5,60.8,29.88,SSE,147,0.0,2.0,91,0.00,,---,0.00,VWS V14.01,2013-06-05 13:40:00,
2013-06-05 08:55:00,63.9,60.9,29.88,SE,128,1.0,5.0,90,0.00,,---,0.00,VWS V14.01,2013-06-05 13:55:00,
2013-06-05 09:10:00,64.2,61.2,29.89,SSE,156,1.0,7.0,90,0.00,,---,0.00,VWS V14.01,2013-06-05 14:10:00,
2013-06-05 09:25:00,64.6,61.6,29.90,SE,136,2.0,4.0,90,0.00,,---,0.00,VWS V14.01,2013-06-05 14:25:00,
2013-06-05 09:40:00,64.7,61.4,29.90,SE,135,0.0,4.0,89,0.00,,---,0.00,VWS V14.01,2013-06-05 14:40:00,
2013-06-05 09:55:00,64.8,61.5,29.90,SSE,157,0.0,0.0,89,0.00,,---,0.00,VWS V14.01,2013-06-05 14:55:00,
2013-06-05 10:10:00,64.7,61.4,29.90,SSE,157,0.0,0.0,89,0.00,,---,0.00,VWS V14.01,2013-06-05 15:10:00,
2013-06-05 10:25:00,64.6,61.6,29.90,SSE,155,0.0,0.0,90,0.00,,---,0.00,VWS V14.01,2013-06-05 15:25:00,
2013-06-05 10:40:00,64.1,61.4,29.91,SE,137,0.0,5.0,91,0.12,,---,0.12,VWS V14.01,2013-06-05 15:40:00,
2013-06-05 10:55:00,63.6,61.5,29.90,SE,136,1.0,4.0,93,0.27,,---,0.27,VWS V14.01,2013-06-05 15:55:00,
2013-06-05 11:10:00,63.1,61.3,29.90,SE,136,0.0,5.0,94,0.39,,---,0.39,VWS V14.01,2013-06-05 16:10:00,
2013-06-05 11:25:00,63.1,61.7,29.90,SE,136,0.0,0.0,95,0.41,,---,0.41,VWS V14.01,2013-06-05 16:25:00,
2013-06-05 11:40:00,63.2,61.8,29.91,SE,136,0.0,1.0,95,0.42,,---,0.42,VWS V14.01,2013-06-05 16:40:00,
2013-06-05 11:55:00,63.2,61.8,29.91,SSE,157,0.0,0.0,95,0.32,,---,0.44,VWS V14.01,2013-06-05 16:55:00,
2013-06-05 12:10:00,63.3,62.1,29.90,SSE,157,0.0,0.0,96,0.27,,---,0.54,VWS V14.01,2013-06-05 17:10:00,
2013-06-05 12:25:00,63.1,61.9,29.90,SSE,158,0.0,0.0,96,0.18,,---,0.57,VWS V14.01,2013-06-05 17:25:00,
2013-06-05 12:40:00,63.4,62.2,29.89,NW,319,3.0,6.0,96,0.23,,---,0.64,VWS V14.01,2013-06-05 17:40:00,
2013-06-05 12:55:00,63.4,62.2,29.89,NNW,329,5.0,7.0,96,0.24,,---,0.66,VWS V14.01,2013-06-05 17:55:00,
2013-06-05 13:10:00,63.4,62.2,29.89,NNW,331,1.0,7.0,96,0.23,,---,0.67,VWS V14.01,2013-06-05 18:10:00,
2013-06-05 13:25:00,63.5,62.3,29.89,NNW,340,2.0,7.0,96,0.14,,---,0.68,VWS V14.01,2013-06-05 18:25:00,
2013-06-05 13:40:00,63.5,62.3,29.90,NW,316,3.0,7.0,96,0.13,,---,0.70,VWS V14.01,2013-06-05 18:40:00,
2013-06-05 13:55:00,63.7,62.5,29.89,NNW,335,9.0,9.0,96,0.07,,---,0.71,VWS V14.01,2013-06-05 18:55:00,
2013-06-05 14:10:00,63.9,63.0,29.88,NW,322,9.0,10.0,97,0.06,,---,0.72,VWS V14.01,2013-06-05 19:10:00,
2013-06-05 14:25:00,64.0,62.8,29.88,NNW,346,6.0,12.0,96,0.06,,---,0.73,VWS V14.01,2013-06-05 19:25:00,
2013-06-05 14:40:00,64.2,63.0,29.87,NNW,339,9.0,12.0,96,0.05,,---,0.73,VWS V14.01,2013-06-05 19:40:00,
2013-06-05 14:55:00,64.3,63.1,29.86,North,355,5.0,13.0,96,0.04,,---,0.74,VWS V14.01,2013-06-05 19:55:00,
2013-06-05 15:10:00,64.7,63.5,29.86,North,355,6.0,9.0,96,0.03,,---,0.74,VWS V14.01,2013-06-05 20:10:00,
2013-06-05 15:25:00,64.9,63.7,29.86,NW,325,4.0,11.0,96,0.02,,---,0.74,VWS V14.01,2013-06-05 20:25:00,
2013-06-05 15:40:00,64.9,63.4,29.86,North,350,9.0,11.0,95,0.01,,---,0.74,VWS V14.01,2013-06-05 20:40:00,
2013-06-05 15:55:00,65.0,63.8,29.86,North,5,5.0,10.0,96,0.01,,---,0.74,VWS V14.01,2013-06-05 20:55:00,
2013-06-05 16:10:00,64.9,63.4,29.87,North,355,7.0,10.0,95,0.00,,---,0.74,VWS V14.01,2013-06-05 21:10:00,
2013-06-05 16:25:00,64.8,63.3,29.87,WNW,293,6.0,12.0,95,0.00,,---,0.74,VWS V14.01,2013-06-05 21:25:00,
2013-06-05 16:40:00,64.6,62.8,29.87,NNW,344,5.0,13.0,94,0.00,,---,0.74,VWS V14.01,2013-06-05 21:40:00,
2013-06-05 16:55:00,64.3,62.5,29.87,NNW,345,6.0,13.0,94,0.00,,---,0.74,VWS V14.01,2013-06-05 21:55:00,
2013-06-05 17:10:00,64.1,62.3,29.87,North,11,9.0,12.0,94,0.00,,---,0.74,VWS V14.01,2013-06-05 22:10:00,
2013-06-05 17:25:00,64.0,62.2,29.87,North,5,8.0,15.0,94,0.00,,---,0.74,VWS V14.01,2013-06-05 22:25:00,
2013-06-05 17:40:00,64.1,62.3,29.87,North,355,10.0,13.0,94,0.00,,---,0.74,VWS V14.01,2013-06-05 22:40:00,
2013-06-05 17:55:00,64.5,62.7,29.86,North,360,4.0,12.0,94,0.00,,---,0.74,VWS V14.01,2013-06-05 22:55:00,
2013-06-05 18:10:00,64.8,62.4,29.87,NNE,19,8.0,12.0,92,0.00,,---,0.74,VWS V14.01,2013-06-05 23:10:00,
2013-06-05 18:25:00,65.0,62.6,29.87,NNE,33,6.0,11.0,92,0.00,,---,0.74,VWS V14.01,2013-06-05 23:25:00,
2013-06-05 18:40:00,65.0,62.6,29.87,North,355,3.0,8.0,92,0.00,,---,0.74,VWS V14.01,2013-06-05 23:40:00,
2013-06-05 18:55:00,64.6,61.9,29.87,North,349,5.0,12.0,91,0.00,,---,0.74,VWS V14.01,2013-06-05 23:55:00,
2013-06-05 19:10:00,64.5,62.1,29.87,North,355,2.0,10.0,92,0.00,,---,0.74,VWS V14.01,2013-06-06 00:10:00,
2013-06-05 19:25:00,64.4,62.0,29.88,NNW,345,7.0,10.0,92,0.00,,---,0.74,VWS V14.01,2013-06-06 00:25:00,
2013-06-05 19:40:00,64.4,61.7,29.88,North,11,3.0,11.0,91,0.00,,---,0.74,VWS V14.01,2013-06-06 00:40:00,
2013-06-05 19:55:00,64.4,62.0,29.88,NNE,13,2.0,7.0,92,0.00,,---,0.74,VWS V14.01,2013-06-06 00:55:00,
2013-06-05 20:10:00,64.3,61.9,29.89,NNE,13,4.0,6.0,92,0.00,,---,0.74,VWS V14.01,2013-06-06 01:10:00,
2013-06-05 20:25:00,64.2,61.8,29.89,NNE,12,3.0,6.0,92,0.00,,---,0.74,VWS V14.01,2013-06-06 01:25:00,
2013-06-05 20:40:00,64.1,61.7,29.89,NNE,12,3.0,6.0,92,0.00,,---,0.74,VWS V14.01,2013-06-06 01:40:00,
2013-06-05 20:55:00,64.1,62.0,29.89,NNE,12,0.0,3.0,93,0.00,,---,0.74,VWS V14.01,2013-06-06 01:55:00,
2013-06-05 21:10:00,64.0,61.9,29.89,NNE,12,0.0,0.0,93,0.00,,---,0.74,VWS V14.01,2013-06-06 02:10:00,
2013-06-05 21:25:00,63.9,61.8,29.89,NNE,12,0.0,0.0,93,0.00,,---,0.74,VWS V14.01,2013-06-06 02:25:00,
2013-06-05 21:40:00,63.8,61.7,29.90,NNE,12,0.0,0.0,93,0.00,,---,0.74,VWS V14.01,2013-06-06 02:40:00,
2013-06-05 21:55:00,63.7,62.0,29.90,NNE,12,0.0,0.0,94,0.00,,---,0.74,VWS V14.01,2013-06-06 02:55:00,
2013-06-05 22:10:00,63.6,61.8,29.91,NNE,12,0.0,0.0,94,0.00,,---,0.74,VWS V14.01,2013-06-06 03:10:00,
2013-06-05 22:25:00,63.5,61.8,29.91,NNE,12,0.0,0.0,94,0.00,,---,0.74,VWS V14.01,2013-06-06 03:25:00,
2013-06-05 22:40:00,63.4,62.0,29.91,NNE,12,0.0,0.0,95,0.00,,---,0.74,VWS V14.01,2013-06-06 03:40:00,
2013-06-05 22:55:00,63.4,62.0,29.92,NNE,12,0.0,0.0,95,0.00,,---,0.74,VWS V14.01,2013-06-06 03:55:00,
2013-06-05 23:10:00,63.2,61.8,29.92,NNE,12,0.0,0.0,95,0.00,,---,0.74,VWS V14.01,2013-06-06 04:10:00,
2013-06-05 23:25:00,63.2,61.8,29.92,NNE,12,0.0,0.0,95,0.00,,---,0.74,VWS V14.01,2013-06-06 04:25:00,
2013-06-05 23:40:00,63.1,61.9,29.91,NNE,12,0.0,0.0,96,0.00,,---,0.74,VWS V14.01,2013-06-06 04:40:00,
2013-06-05 23:55:00,62.9,61.5,29.91,NNE,12,0.0,0.0,95,0.00,,---,0.00,VWS V14.01,2013-06-06 04:55:00,